Russell, Mississippi
Current Conditions -  °F | °C
As of 5:58 PM on Friday 31 Oct 2014 (Local Time) from KMEI Reporting Station
Few Clouds Few Clouds  
Wind Chill: 16°   Ceiling: Unl
Heat Index: 16°   Visibility: 10mi
Dew Point:   Wind: 16mph
Humidity: 54%   Direction: 320°NW
Pressure: 30.06"   Gusts: 24mph
Location:  32.3221°N, 88.5771°W
Report Text: KMEI 312258Z 32014G21KT 10SM FEW049 16/07 A3006 RMK AO2 PK WND 35028/2222 SLP176 T01610067
Loading
Personal Weather Stations






























Interactive Weather Map
Tropical Storm Tracking
New forecast layout! Learn more

10-Day Weather Forecast

Advertisements
Track Severe Weather on mobile